sensor_id;sensor_type;location;lat;lon;timestamp;temperature;humidity
67557;DHT22;54387;53.526;49.300;2022-11-13T00:03:36;8.50;79.90
67557;DHT22;54387;53.526;49.300;2022-11-13T00:06:02;8.50;80.10
67557;DHT22;54387;53.526;49.300;2022-11-13T00:08:28;8.40;80.20
67557;DHT22;54387;53.526;49.300;2022-11-13T00:11:01;8.50;80.70
67557;DHT22;54387;53.526;49.300;2022-11-13T00:13:28;8.50;80.60
67557;DHT22;54387;53.526;49.300;2022-11-13T00:16:01;8.50;80.30
67557;DHT22;54387;53.526;49.300;2022-11-13T00:18:27;8.50;79.60
67557;DHT22;54387;53.526;49.300;2022-11-13T00:20:55;8.50;79.10
67557;DHT22;54387;53.526;49.300;2022-11-13T00:23:21;8.50;78.50
67557;DHT22;54387;53.526;49.300;2022-11-13T00:25:47;8.40;77.40
67557;DHT22;54387;53.526;49.300;2022-11-13T00:28:13;8.40;77.70
67557;DHT22;54387;53.526;49.300;2022-11-13T00:30:39;8.40;77.10
67557;DHT22;54387;53.526;49.300;2022-11-13T00:33:05;8.30;76.50
67557;DHT22;54387;53.526;49.300;2022-11-13T00:35:32;8.30;76.30
67557;DHT22;54387;53.526;49.300;2022-11-13T00:37:58;8.30;76.10
67557;DHT22;54387;53.526;49.300;2022-11-13T00:40:24;8.30;75.30
67557;DHT22;54387;53.526;49.300;2022-11-13T00:42:50;8.40;74.00
67557;DHT22;54387;53.526;49.300;2022-11-13T00:45:16;8.40;73.40
67557;DHT22;54387;53.526;49.300;2022-11-13T00:47:42;8.40;72.70
67557;DHT22;54387;53.526;49.300;2022-11-13T00:50:08;8.50;72.40
67557;DHT22;54387;53.526;49.300;2022-11-13T00:52:34;8.50;71.40
67557;DHT22;54387;53.526;49.300;2022-11-13T00:55:00;8.50;71.10
67557;DHT22;54387;53.526;49.300;2022-11-13T00:57:26;8.50;70.80
67557;DHT22;54387;53.526;49.300;2022-11-13T00:59:52;8.50;70.80
67557;DHT22;54387;53.526;49.300;2022-11-13T01:02:18;8.60;70.40
67557;DHT22;54387;53.526;49.300;2022-11-13T01:04:44;8.60;70.30
67557;DHT22;54387;53.526;49.300;2022-11-13T01:07:10;8.70;69.90
67557;DHT22;54387;53.526;49.300;2022-11-13T01:09:36;8.70;69.90
67557;DHT22;54387;53.526;49.300;2022-11-13T01:12:02;8.70;70.10
67557;DHT22;54387;53.526;49.300;2022-11-13T01:14:28;8.60;69.80
67557;DHT22;54387;53.526;49.300;2022-11-13T01:16:54;8.60;70.00
67557;DHT22;54387;53.526;49.300;2022-11-13T01:19:19;8.60;70.00
67557;DHT22;54387;53.526;49.300;2022-11-13T01:21:45;8.60;70.10
67557;DHT22;54387;53.526;49.300;2022-11-13T01:24:11;8.60;70.10
67557;DHT22;54387;53.526;49.300;2022-11-13T01:26:37;8.60;70.00
67557;DHT22;54387;53.526;49.300;2022-11-13T01:29:03;8.60;69.90
67557;DHT22;54387;53.526;49.300;2022-11-13T01:31:31;8.70;70.20
67557;DHT22;54387;53.526;49.300;2022-11-13T01:33:57;8.70;69.70
67557;DHT22;54387;53.526;49.300;2022-11-13T01:36:25;8.80;69.90
67557;DHT22;54387;53.526;49.300;2022-11-13T01:38:51;8.80;69.40
67557;DHT22;54387;53.526;49.300;2022-11-13T01:41:24;8.90;69.20
67557;DHT22;54387;53.526;49.300;2022-11-13T01:43:51;8.90;68.90
67557;DHT22;54387;53.526;49.300;2022-11-13T01:49:01;9.00;68.80
67557;DHT22;54387;53.526;49.300;2022-11-13T01:51:38;9.00;68.70
67557;DHT22;54387;53.526;49.300;2022-11-13T01:54:07;9.10;68.60
67557;DHT22;54387;53.526;49.300;2022-11-13T01:56:34;9.10;68.50
67557;DHT22;54387;53.526;49.300;2022-11-13T01:59:06;9.10;68.10
67557;DHT22;54387;53.526;49.300;2022-11-13T02:01:33;9.10;67.80
67557;DHT22;54387;53.526;49.300;2022-11-13T02:03:59;9.20;67.50
67557;DHT22;54387;53.526;49.300;2022-11-13T02:06:27;9.20;67.20
67557;DHT22;54387;53.526;49.300;2022-11-13T02:08:53;9.20;67.10
67557;DHT22;54387;53.526;49.300;2022-11-13T02:11:19;9.20;66.70
67557;DHT22;54387;53.526;49.300;2022-11-13T02:13:45;9.10;66.60
67557;DHT22;54387;53.526;49.300;2022-11-13T02:16:12;9.20;66.00
67557;DHT22;54387;53.526;49.300;2022-11-13T02:18:38;9.20;65.60
67557;DHT22;54387;53.526;49.300;2022-11-13T02:21:14;9.20;65.70
67557;DHT22;54387;53.526;49.300;2022-11-13T02:23:47;9.30;65.30
67557;DHT22;54387;53.526;49.300;2022-11-13T02:26:15;9.30;64.90
67557;DHT22;54387;53.526;49.300;2022-11-13T02:28:43;9.30;64.90
67557;DHT22;54387;53.526;49.300;2022-11-13T02:31:10;9.30;64.70
67557;DHT22;54387;53.526;49.300;2022-11-13T02:33:37;9.30;64.70
67557;DHT22;54387;53.526;49.300;2022-11-13T02:36:03;9.30;64.50
67557;DHT22;54387;53.526;49.300;2022-11-13T02:38:31;9.30;64.40
67557;DHT22;54387;53.526;49.300;2022-11-13T02:40:57;9.30;64.50
67557;DHT22;54387;53.526;49.300;2022-11-13T02:43:23;9.30;64.60
67557;DHT22;54387;53.526;49.300;2022-11-13T02:45:49;9.30;64.60
67557;DHT22;54387;53.526;49.300;2022-11-13T02:48:15;9.30;64.40
67557;DHT22;54387;53.526;49.300;2022-11-13T02:50:41;9.30;64.30
67557;DHT22;54387;53.526;49.300;2022-11-13T02:53:07;9.40;64.10
67557;DHT22;54387;53.526;49.300;2022-11-13T02:55:33;9.40;63.90
67557;DHT22;54387;53.526;49.300;2022-11-13T02:57:59;9.40;63.60
67557;DHT22;54387;53.526;49.300;2022-11-13T03:00:25;9.40;63.50
67557;DHT22;54387;53.526;49.300;2022-11-13T03:02:51;9.40;63.30
67557;DHT22;54387;53.526;49.300;2022-11-13T03:05:17;9.50;62.90
67557;DHT22;54387;53.526;49.300;2022-11-13T03:07:43;9.50;62.70
67557;DHT22;54387;53.526;49.300;2022-11-13T03:10:10;9.50;62.50
67557;DHT22;54387;53.526;49.300;2022-11-13T03:12:37;9.50;62.70
67557;DHT22;54387;53.526;49.300;2022-11-13T03:15:04;9.50;62.40
67557;DHT22;54387;53.526;49.300;2022-11-13T03:17:30;9.40;62.60
67557;DHT22;54387;53.526;49.300;2022-11-13T03:19:56;9.40;62.70
67557;DHT22;54387;53.526;49.300;2022-11-13T03:22:22;9.40;62.70
67557;DHT22;54387;53.526;49.300;2022-11-13T03:24:48;9.50;62.90
67557;DHT22;54387;53.526;49.300;2022-11-13T03:27:14;9.40;62.80
67557;DHT22;54387;53.526;49.300;2022-11-13T03:29:40;9.40;63.00
67557;DHT22;54387;53.526;49.300;2022-11-13T03:32:06;9.40;63.10
67557;DHT22;54387;53.526;49.300;2022-11-13T03:34:32;9.40;63.30
67557;DHT22;54387;53.526;49.300;2022-11-13T03:36:58;9.40;63.40
67557;DHT22;54387;53.526;49.300;2022-11-13T03:39:25;9.40;63.30
67557;DHT22;54387;53.526;49.300;2022-11-13T03:41:52;9.40;63.30
67557;DHT22;54387;53.526;49.300;2022-11-13T03:44:18;9.40;63.30
67557;DHT22;54387;53.526;49.300;2022-11-13T03:46:44;9.40;62.90
67557;DHT22;54387;53.526;49.300;2022-11-13T03:49:10;9.40;62.50
67557;DHT22;54387;53.526;49.300;2022-11-13T03:51:36;9.40;62.40
67557;DHT22;54387;53.526;49.300;2022-11-13T03:54:02;9.40;62.20
67557;DHT22;54387;53.526;49.300;2022-11-13T03:56:27;9.40;61.80
67557;DHT22;54387;53.526;49.300;2022-11-13T03:58:53;9.40;61.40
67557;DHT22;54387;53.526;49.300;2022-11-13T04:01:19;9.40;61.30
67557;DHT22;54387;53.526;49.300;2022-11-13T04:03:45;9.30;61.40
67557;DHT22;54387;53.526;49.300;2022-11-13T04:06:11;9.30;61.40
67557;DHT22;54387;53.526;49.300;2022-11-13T04:08:39;9.40;61.40
67557;DHT22;54387;53.526;49.300;2022-11-13T04:11:05;9.40;61.40
67557;DHT22;54387;53.526;49.300;2022-11-13T04:13:31;9.30;61.60
67557;DHT22;54387;53.526;49.300;2022-11-13T04:15:57;9.40;61.70
67557;DHT22;54387;53.526;49.300;2022-11-13T04:18:23;9.40;61.80
67557;DHT22;54387;53.526;49.300;2022-11-13T04:20:49;9.30;61.90
67557;DHT22;54387;53.526;49.300;2022-11-13T04:23:15;9.30;62.00
67557;DHT22;54387;53.526;49.300;2022-11-13T04:25:43;9.30;61.90
67557;DHT22;54387;53.526;49.300;2022-11-13T04:28:09;9.30;61.90
67557;DHT22;54387;53.526;49.300;2022-11-13T04:30:35;9.30;62.00
67557;DHT22;54387;53.526;49.300;2022-11-13T04:33:01;9.30;61.90
67557;DHT22;54387;53.526;49.300;2022-11-13T04:35:27;9.30;61.70
67557;DHT22;54387;53.526;49.300;2022-11-13T04:37:53;9.30;61.80
67557;DHT22;54387;53.526;49.300;2022-11-13T04:40:19;9.30;61.50
67557;DHT22;54387;53.526;49.300;2022-11-13T04:42:45;9.20;61.50
67557;DHT22;54387;53.526;49.300;2022-11-13T04:45:15;9.20;61.50
67557;DHT22;54387;53.526;49.300;2022-11-13T04:47:41;9.20;61.60
67557;DHT22;54387;53.526;49.300;2022-11-13T04:50:07;9.20;61.70
67557;DHT22;54387;53.526;49.300;2022-11-13T04:52:33;9.20;61.60
67557;DHT22;54387;53.526;49.300;2022-11-13T04:54:59;9.20;61.60
67557;DHT22;54387;53.526;49.300;2022-11-13T04:57:25;9.20;61.30
67557;DHT22;54387;53.526;49.300;2022-11-13T04:59:51;9.20;61.50
67557;DHT22;54387;53.526;49.300;2022-11-13T05:02:23;9.30;61.40
67557;DHT22;54387;53.526;49.300;2022-11-13T05:04:49;9.30;61.40
67557;DHT22;54387;53.526;49.300;2022-11-13T05:07:15;9.20;61.40
67557;DHT22;54387;53.526;49.300;2022-11-13T05:09:41;9.20;61.40
67557;DHT22;54387;53.526;49.300;2022-11-13T05:12:07;9.10;61.30
67557;DHT22;54387;53.526;49.300;2022-11-13T05:14:37;9.10;61.50
67557;DHT22;54387;53.526;49.300;2022-11-13T05:17:03;9.10;61.50
67557;DHT22;54387;53.526;49.300;2022-11-13T05:19:31;9.00;61.60
67557;DHT22;54387;53.526;49.300;2022-11-13T05:21:57;8.90;61.70
67557;DHT22;54387;53.526;49.300;2022-11-13T05:24:24;8.90;61.70
67557;DHT22;54387;53.526;49.300;2022-11-13T05:26:50;8.90;61.70
67557;DHT22;54387;53.526;49.300;2022-11-13T05:29:16;8.80;61.60
67557;DHT22;54387;53.526;49.300;2022-11-13T05:31:42;8.80;61.80
67557;DHT22;54387;53.526;49.300;2022-11-13T05:34:08;8.80;61.70
67557;DHT22;54387;53.526;49.300;2022-11-13T05:36:34;8.80;61.80
67557;DHT22;54387;53.526;49.300;2022-11-13T05:39:00;8.90;62.10
67557;DHT22;54387;53.526;49.300;2022-11-13T05:41:26;8.90;61.90
67557;DHT22;54387;53.526;49.300;2022-11-13T05:43:52;8.90;61.90
67557;DHT22;54387;53.526;49.300;2022-11-13T05:46:20;8.90;61.70
67557;DHT22;54387;53.526;49.300;2022-11-13T05:48:46;9.00;61.80
67557;DHT22;54387;53.526;49.300;2022-11-13T05:51:15;9.00;61.50
67557;DHT22;54387;53.526;49.300;2022-11-13T05:53:42;9.00;61.50
67557;DHT22;54387;53.526;49.300;2022-11-13T05:56:13;9.10;61.50
67557;DHT22;54387;53.526;49.300;2022-11-13T05:58:40;9.00;61.40
67557;DHT22;54387;53.526;49.300;2022-11-13T06:01:10;9.10;61.30
67557;DHT22;54387;53.526;49.300;2022-11-13T06:03:37;9.10;61.30
67557;DHT22;54387;53.526;49.300;2022-11-13T06:06:11;9.00;61.10
67557;DHT22;54387;53.526;49.300;2022-11-13T06:08:37;9.10;61.30
67557;DHT22;54387;53.526;49.300;2022-11-13T06:11:04;9.00;61.40
67557;DHT22;54387;53.526;49.300;2022-11-13T06:13:30;9.00;61.50
67557;DHT22;54387;53.526;49.300;2022-11-13T06:16:03;9.00;61.70
67557;DHT22;54387;53.526;49.300;2022-11-13T06:18:30;9.00;61.70
67557;DHT22;54387;53.526;49.300;2022-11-13T06:21:16;9.10;61.90
67557;DHT22;54387;53.526;49.300;2022-11-13T06:23:42;9.10;61.70
67557;DHT22;54387;53.526;49.300;2022-11-13T06:26:10;9.20;61.70
67557;DHT22;54387;53.526;49.300;2022-11-13T06:28:36;9.20;61.70
67557;DHT22;54387;53.526;49.300;2022-11-13T06:31:03;9.20;61.70
67557;DHT22;54387;53.526;49.300;2022-11-13T06:33:30;9.20;61.30
67557;DHT22;54387;53.526;49.300;2022-11-13T06:35:56;9.20;61.30
67557;DHT22;54387;53.526;49.300;2022-11-13T06:38:22;9.20;61.20
67557;DHT22;54387;53.526;49.300;2022-11-13T06:40:48;9.20;61.20
67557;DHT22;54387;53.526;49.300;2022-11-13T06:43:14;9.20;61.30
67557;DHT22;54387;53.526;49.300;2022-11-13T06:45:40;9.20;61.30
67557;DHT22;54387;53.526;49.300;2022-11-13T06:48:06;9.20;61.40
67557;DHT22;54387;53.526;49.300;2022-11-13T06:50:32;9.20;61.40
67557;DHT22;54387;53.526;49.300;2022-11-13T06:52:59;9.20;61.40
67557;DHT22;54387;53.526;49.300;2022-11-13T06:55:25;9.10;61.10
67557;DHT22;54387;53.526;49.300;2022-11-13T06:57:51;9.10;61.10
67557;DHT22;54387;53.526;49.300;2022-11-13T07:00:18;9.10;60.90
67557;DHT22;54387;53.526;49.300;2022-11-13T07:02:47;9.20;61.00
67557;DHT22;54387;53.526;49.300;2022-11-13T07:05:13;9.20;60.90
67557;DHT22;54387;53.526;49.300;2022-11-13T07:07:39;9.30;60.90
67557;DHT22;54387;53.526;49.300;2022-11-13T07:10:05;9.30;60.80
67557;DHT22;54387;53.526;49.300;2022-11-13T07:12:31;9.20;60.80
67557;DHT22;54387;53.526;49.300;2022-11-13T07:14:57;9.20;61.00
67557;DHT22;54387;53.526;49.300;2022-11-13T07:17:23;9.20;61.10
67557;DHT22;54387;53.526;49.300;2022-11-13T07:19:49;9.20;61.00
67557;DHT22;54387;53.526;49.300;2022-11-13T07:22:15;9.10;60.90
67557;DHT22;54387;53.526;49.300;2022-11-13T07:24:41;9.10;61.30
67557;DHT22;54387;53.526;49.300;2022-11-13T07:27:07;9.20;61.30
67557;DHT22;54387;53.526;49.300;2022-11-13T07:29:33;9.20;61.70
67557;DHT22;54387;53.526;49.300;2022-11-13T07:32:01;9.20;61.20
67557;DHT22;54387;53.526;49.300;2022-11-13T07:34:27;9.20;61.10
67557;DHT22;54387;53.526;49.300;2022-11-13T07:36:53;9.20;61.20
67557;DHT22;54387;53.526;49.300;2022-11-13T07:39:19;9.20;61.20
67557;DHT22;54387;53.526;49.300;2022-11-13T07:41:45;9.30;61.20
67557;DHT22;54387;53.526;49.300;2022-11-13T07:44:11;9.20;61.30
67557;DHT22;54387;53.526;49.300;2022-11-13T07:46:37;9.30;61.00
67557;DHT22;54387;53.526;49.300;2022-11-13T07:49:03;9.20;60.90
67557;DHT22;54387;53.526;49.300;2022-11-13T07:51:30;9.20;61.00
67557;DHT22;54387;53.526;49.300;2022-11-13T07:53:56;9.30;61.10
67557;DHT22;54387;53.526;49.300;2022-11-13T07:56:21;9.30;61.20
67557;DHT22;54387;53.526;49.300;2022-11-13T07:58:50;9.40;60.90
67557;DHT22;54387;53.526;49.300;2022-11-13T08:01:15;9.40;60.70
67557;DHT22;54387;53.526;49.300;2022-11-13T08:03:42;9.40;60.80
67557;DHT22;54387;53.526;49.300;2022-11-13T08:06:08;9.40;60.60
67557;DHT22;54387;53.526;49.300;2022-11-13T08:08:34;9.40;60.80
67557;DHT22;54387;53.526;49.300;2022-11-13T08:11:04;9.40;60.70
67557;DHT22;54387;53.526;49.300;2022-11-13T08:13:30;9.40;60.10
67557;DHT22;54387;53.526;49.300;2022-11-13T08:16:00;9.40;60.30
67557;DHT22;54387;53.526;49.300;2022-11-13T08:18:26;9.40;59.80
67557;DHT22;54387;53.526;49.300;2022-11-13T08:20:53;9.40;60.10
67557;DHT22;54387;53.526;49.300;2022-11-13T08:23:19;9.40;59.60
67557;DHT22;54387;53.526;49.300;2022-11-13T08:25:45;9.50;60.00
67557;DHT22;54387;53.526;49.300;2022-11-13T08:28:11;9.40;60.10
67557;DHT22;54387;53.526;49.300;2022-11-13T08:30:37;9.50;59.80
67557;DHT22;54387;53.526;49.300;2022-11-13T08:33:03;9.50;60.00
67557;DHT22;54387;53.526;49.300;2022-11-13T08:35:29;9.50;59.90
67557;DHT22;54387;53.526;49.300;2022-11-13T08:38:06;9.60;59.70
67557;DHT22;54387;53.526;49.300;2022-11-13T08:40:32;9.60;59.60
67557;DHT22;54387;53.526;49.300;2022-11-13T08:42:58;9.60;59.00
67557;DHT22;54387;53.526;49.300;2022-11-13T08:45:25;9.60;59.40
67557;DHT22;54387;53.526;49.300;2022-11-13T08:47:53;9.70;59.20
67557;DHT22;54387;53.526;49.300;2022-11-13T08:50:19;9.70;59.30
67557;DHT22;54387;53.526;49.300;2022-11-13T08:52:45;9.80;58.80
67557;DHT22;54387;53.526;49.300;2022-11-13T08:55:11;9.90;58.90
67557;DHT22;54387;53.526;49.300;2022-11-13T08:57:37;9.90;58.90
67557;DHT22;54387;53.526;49.300;2022-11-13T09:00:05;9.80;59.00
67557;DHT22;54387;53.526;49.300;2022-11-13T09:02:31;9.70;59.40
67557;DHT22;54387;53.526;49.300;2022-11-13T09:04:58;9.80;59.50
67557;DHT22;54387;53.526;49.300;2022-11-13T09:07:24;9.80;59.20
67557;DHT22;54387;53.526;49.300;2022-11-13T09:09:50;9.80;59.30
67557;DHT22;54387;53.526;49.300;2022-11-13T09:12:16;9.80;59.50
67557;DHT22;54387;53.526;49.300;2022-11-13T09:14:42;9.70;59.70
67557;DHT22;54387;53.526;49.300;2022-11-13T09:17:08;9.70;60.00
67557;DHT22;54387;53.526;49.300;2022-11-13T09:19:34;9.60;60.10
67557;DHT22;54387;53.526;49.300;2022-11-13T09:22:00;9.50;60.10
67557;DHT22;54387;53.526;49.300;2022-11-13T09:24:26;9.50;60.30
67557;DHT22;54387;53.526;49.300;2022-11-13T09:26:52;9.40;60.40
67557;DHT22;54387;53.526;49.300;2022-11-13T09:29:18;9.40;60.50
67557;DHT22;54387;53.526;49.300;2022-11-13T09:31:46;9.40;60.30
67557;DHT22;54387;53.526;49.300;2022-11-13T09:34:12;9.40;60.60
67557;DHT22;54387;53.526;49.300;2022-11-13T09:36:38;9.30;60.90
67557;DHT22;54387;53.526;49.300;2022-11-13T09:39:04;9.20;61.20
67557;DHT22;54387;53.526;49.300;2022-11-13T09:41:47;9.10;61.70
67557;DHT22;54387;53.526;49.300;2022-11-13T09:49:23;9.00;62.00
67557;DHT22;54387;53.526;49.300;2022-11-13T09:51:50;8.90;62.20
67557;DHT22;54387;53.526;49.300;2022-11-13T09:54:17;8.80;62.50
67557;DHT22;54387;53.526;49.300;2022-11-13T09:56:45;8.70;62.80
67557;DHT22;54387;53.526;49.300;2022-11-13T09:59:23;8.60;63.00
67557;DHT22;54387;53.526;49.300;2022-11-13T10:04:28;8.60;63.20
67557;DHT22;54387;53.526;49.300;2022-11-13T10:12:22;8.60;63.10
67557;DHT22;54387;53.526;49.300;2022-11-13T10:14:50;8.60;62.80
67557;DHT22;54387;53.526;49.300;2022-11-13T10:19:52;8.50;63.40
67557;DHT22;54387;53.526;49.300;2022-11-13T10:25:08;8.20;65.30
67557;DHT22;54387;53.526;49.300;2022-11-13T10:27:35;7.90;66.80
67557;DHT22;54387;53.526;49.300;2022-11-13T10:30:01;7.60;68.10
67557;DHT22;54387;53.526;49.300;2022-11-13T10:32:30;7.40;69.20
67557;DHT22;54387;53.526;49.300;2022-11-13T10:35:00;7.20;70.10
67557;DHT22;54387;53.526;49.300;2022-11-13T10:40:08;6.90;71.40
67557;DHT22;54387;53.526;49.300;2022-11-13T10:42:39;6.80;72.40
67557;DHT22;54387;53.526;49.300;2022-11-13T10:45:12;6.80;73.10
67557;DHT22;54387;53.526;49.300;2022-11-13T10:47:44;6.70;73.50
67557;DHT22;54387;53.526;49.300;2022-11-13T10:50:22;6.70;73.60
67557;DHT22;54387;53.526;49.300;2022-11-13T10:52:49;6.70;73.90
67557;DHT22;54387;53.526;49.300;2022-11-13T10:55:19;6.60;74.00
67557;DHT22;54387;53.526;49.300;2022-11-13T10:57:59;6.60;74.10
67557;DHT22;54387;53.526;49.300;2022-11-13T11:02:53;6.60;74.50
67557;DHT22;54387;53.526;49.300;2022-11-13T11:05:20;6.60;74.70
67557;DHT22;54387;53.526;49.300;2022-11-13T11:07:47;6.60;75.10
67557;DHT22;54387;53.526;49.300;2022-11-13T11:12:54;6.60;74.80
67557;DHT22;54387;53.526;49.300;2022-11-13T11:23:14;6.60;75.50
67557;DHT22;54387;53.526;49.300;2022-11-13T11:25:42;6.60;75.80
67557;DHT22;54387;53.526;49.300;2022-11-13T11:31:16;6.50;76.10
67557;DHT22;54387;53.526;49.300;2022-11-13T11:33:50;6.50;76.70
67557;DHT22;54387;53.526;49.300;2022-11-13T11:39:24;6.50;76.60
67557;DHT22;54387;53.526;49.300;2022-11-13T11:47:13;6.40;76.70
67557;DHT22;54387;53.526;49.300;2022-11-13T11:49:39;6.40;77.20
67557;DHT22;54387;53.526;49.300;2022-11-13T11:52:28;6.40;77.00
67557;DHT22;54387;53.526;49.300;2022-11-13T12:00:52;6.40;76.50
67557;DHT22;54387;53.526;49.300;2022-11-13T12:03:31;6.40;76.20
67557;DHT22;54387;53.526;49.300;2022-11-13T12:08:47;6.30;75.70
67557;DHT22;54387;53.526;49.300;2022-11-13T12:11:26;6.30;75.80
67557;DHT22;54387;53.526;49.300;2022-11-13T12:34:29;6.40;77.20
67557;DHT22;54387;53.526;49.300;2022-11-13T12:36:57;6.30;77.40
67557;DHT22;54387;53.526;49.300;2022-11-13T12:39:28;6.30;77.30
67557;DHT22;54387;53.526;49.300;2022-11-13T12:42:02;6.30;77.40
67557;DHT22;54387;53.526;49.300;2022-11-13T12:44:29;6.30;77.20
67557;DHT22;54387;53.526;49.300;2022-11-13T12:46:59;6.30;77.30
67557;DHT22;54387;53.526;49.300;2022-11-13T12:49:27;6.30;76.80
67557;DHT22;54387;53.526;49.300;2022-11-13T12:51:54;6.30;76.80
67557;DHT22;54387;53.526;49.300;2022-11-13T12:54:27;6.20;77.20
67557;DHT22;54387;53.526;49.300;2022-11-13T12:57:14;6.30;77.30
67557;DHT22;54387;53.526;49.300;2022-11-13T12:59:48;6.20;77.00
67557;DHT22;54387;53.526;49.300;2022-11-13T13:02:20;6.20;76.90
67557;DHT22;54387;53.526;49.300;2022-11-13T13:05:00;6.10;76.60
67557;DHT22;54387;53.526;49.300;2022-11-13T13:07:47;6.10;77.00
67557;DHT22;54387;53.526;49.300;2022-11-13T13:12:48;6.20;77.20
67557;DHT22;54387;53.526;49.300;2022-11-13T13:20:35;6.10;76.30
67557;DHT22;54387;53.526;49.300;2022-11-13T13:23:02;6.00;76.40
67557;DHT22;54387;53.526;49.300;2022-11-13T13:25:32;6.00;76.50
67557;DHT22;54387;53.526;49.300;2022-11-13T13:28:03;6.00;76.90
67557;DHT22;54387;53.526;49.300;2022-11-13T13:30:47;6.00;76.50
67557;DHT22;54387;53.526;49.300;2022-11-13T13:33:28;6.10;75.80
67557;DHT22;54387;53.526;49.300;2022-11-13T13:36:00;6.10;75.70
67557;DHT22;54387;53.526;49.300;2022-11-13T13:38:42;6.00;75.50
67557;DHT22;54387;53.526;49.300;2022-11-13T13:48:40;5.90;76.10
67557;DHT22;54387;53.526;49.300;2022-11-13T13:51:13;5.90;76.40
67557;DHT22;54387;53.526;49.300;2022-11-13T13:53:40;5.90;76.20
67557;DHT22;54387;53.526;49.300;2022-11-13T13:56:08;5.90;76.10
67557;DHT22;54387;53.526;49.300;2022-11-13T13:58:35;5.90;76.30
67557;DHT22;54387;53.526;49.300;2022-11-13T14:01:05;5.90;76.60
67557;DHT22;54387;53.526;49.300;2022-11-13T14:03:32;5.80;76.00
67557;DHT22;54387;53.526;49.300;2022-11-13T14:06:18;5.90;75.80
67557;DHT22;54387;53.526;49.300;2022-11-13T14:08:46;5.80;75.70
67557;DHT22;54387;53.526;49.300;2022-11-13T14:11:17;5.80;75.80
67557;DHT22;54387;53.526;49.300;2022-11-13T14:13:44;5.80;76.10
67557;DHT22;54387;53.526;49.300;2022-11-13T14:16:10;5.80;76.40
67557;DHT22;54387;53.526;49.300;2022-11-13T14:18:36;5.80;76.60
67557;DHT22;54387;53.526;49.300;2022-11-13T14:21:03;5.80;76.00
67557;DHT22;54387;53.526;49.300;2022-11-13T14:23:31;5.80;75.90
67557;DHT22;54387;53.526;49.300;2022-11-13T14:25:59;5.70;76.00
67557;DHT22;54387;53.526;49.300;2022-11-13T14:28:28;5.70;76.30
67557;DHT22;54387;53.526;49.300;2022-11-13T14:31:05;5.70;76.00
67557;DHT22;54387;53.526;49.300;2022-11-13T14:33:42;5.70;75.50
67557;DHT22;54387;53.526;49.300;2022-11-13T14:36:09;5.70;75.20
67557;DHT22;54387;53.526;49.300;2022-11-13T14:38:39;5.70;75.40
67557;DHT22;54387;53.526;49.300;2022-11-13T14:41:05;5.60;75.60
67557;DHT22;54387;53.526;49.300;2022-11-13T14:43:32;5.70;75.50
67557;DHT22;54387;53.526;49.300;2022-11-13T14:46:02;5.60;75.50
67557;DHT22;54387;53.526;49.300;2022-11-13T14:48:30;5.60;74.80
67557;DHT22;54387;53.526;49.300;2022-11-13T14:51:00;5.60;74.60
67557;DHT22;54387;53.526;49.300;2022-11-13T14:55:56;5.70;74.10
67557;DHT22;54387;53.526;49.300;2022-11-13T14:58:42;5.70;72.80
67557;DHT22;54387;53.526;49.300;2022-11-13T15:03:37;5.80;72.20
67557;DHT22;54387;53.526;49.300;2022-11-13T15:06:04;5.80;72.30
67557;DHT22;54387;53.526;49.300;2022-11-13T15:08:33;5.90;71.60
67557;DHT22;54387;53.526;49.300;2022-11-13T15:10:59;5.90;71.80
67557;DHT22;54387;53.526;49.300;2022-11-13T15:13:25;6.00;71.00
67557;DHT22;54387;53.526;49.300;2022-11-13T15:15:51;6.00;70.60
67557;DHT22;54387;53.526;49.300;2022-11-13T15:18:17;6.00;70.80
67557;DHT22;54387;53.526;49.300;2022-11-13T15:20:44;6.10;70.10
67557;DHT22;54387;53.526;49.300;2022-11-13T15:23:11;6.20;69.70
67557;DHT22;54387;53.526;49.300;2022-11-13T15:25:38;6.20;69.40
67557;DHT22;54387;53.526;49.300;2022-11-13T15:28:04;6.30;69.20
67557;DHT22;54387;53.526;49.300;2022-11-13T15:30:30;6.30;69.00
67557;DHT22;54387;53.526;49.300;2022-11-13T15:32:56;6.30;69.00
67557;DHT22;54387;53.526;49.300;2022-11-13T15:35:23;6.30;69.30
67557;DHT22;54387;53.526;49.300;2022-11-13T15:37:49;6.40;69.40
67557;DHT22;54387;53.526;49.300;2022-11-13T15:40:16;6.40;69.20
67557;DHT22;54387;53.526;49.300;2022-11-13T15:42:42;6.40;69.10
67557;DHT22;54387;53.526;49.300;2022-11-13T15:45:14;6.40;68.90
67557;DHT22;54387;53.526;49.300;2022-11-13T15:47:41;6.40;68.60
67557;DHT22;54387;53.526;49.300;2022-11-13T15:50:07;6.40;68.60
67557;DHT22;54387;53.526;49.300;2022-11-13T15:52:35;6.50;68.40
67557;DHT22;54387;53.526;49.300;2022-11-13T15:55:03;6.50;67.90
67557;DHT22;54387;53.526;49.300;2022-11-13T15:57:31;6.60;68.40
67557;DHT22;54387;53.526;49.300;2022-11-13T15:59:57;6.50;68.30
67557;DHT22;54387;53.526;49.300;2022-11-13T16:02:23;6.50;68.00
67557;DHT22;54387;53.526;49.300;2022-11-13T16:04:51;6.60;67.90
67557;DHT22;54387;53.526;49.300;2022-11-13T16:07:23;6.60;67.90
67557;DHT22;54387;53.526;49.300;2022-11-13T16:09:50;6.60;67.70
67557;DHT22;54387;53.526;49.300;2022-11-13T16:12:16;6.60;67.70
67557;DHT22;54387;53.526;49.300;2022-11-13T16:14:42;6.60;67.80
67557;DHT22;54387;53.526;49.300;2022-11-13T16:17:12;6.60;67.70
67557;DHT22;54387;53.526;49.300;2022-11-13T16:19:40;6.60;67.60
67557;DHT22;54387;53.526;49.300;2022-11-13T16:22:27;6.60;67.30
67557;DHT22;54387;53.526;49.300;2022-11-13T16:24:53;6.60;67.30
67557;DHT22;54387;53.526;49.300;2022-11-13T16:27:28;6.50;67.40
67557;DHT22;54387;53.526;49.300;2022-11-13T16:29:55;6.50;66.80
67557;DHT22;54387;53.526;49.300;2022-11-13T16:32:22;6.50;67.00
67557;DHT22;54387;53.526;49.300;2022-11-13T16:34:48;6.40;66.60
67557;DHT22;54387;53.526;49.300;2022-11-13T16:37:15;6.50;66.60
67557;DHT22;54387;53.526;49.300;2022-11-13T16:39:41;6.40;66.60
67557;DHT22;54387;53.526;49.300;2022-11-13T16:42:08;6.40;66.80
67557;DHT22;54387;53.526;49.300;2022-11-13T16:44:43;6.40;66.70
67557;DHT22;54387;53.526;49.300;2022-11-13T16:47:42;6.40;66.70
67557;DHT22;54387;53.526;49.300;2022-11-13T16:50:01;6.40;66.40
67557;DHT22;54387;53.526;49.300;2022-11-13T16:52:27;6.40;66.30
67557;DHT22;54387;53.526;49.300;2022-11-13T16:54:54;6.40;65.80
67557;DHT22;54387;53.526;49.300;2022-11-13T16:57:20;6.40;65.30
67557;DHT22;54387;53.526;49.300;2022-11-13T16:59:47;6.30;65.20
67557;DHT22;54387;53.526;49.300;2022-11-13T17:02:14;6.30;65.70
67557;DHT22;54387;53.526;49.300;2022-11-13T17:04:40;6.20;65.50
67557;DHT22;54387;53.526;49.300;2022-11-13T17:07:10;6.10;66.20
67557;DHT22;54387;53.526;49.300;2022-11-13T17:09:38;6.10;65.80
67557;DHT22;54387;53.526;49.300;2022-11-13T17:12:04;6.10;66.30
67557;DHT22;54387;53.526;49.300;2022-11-13T17:14:30;6.00;66.60